MBPV

Providenciales International Airport

Providenciales, , Turks and Caicos Islands
MBPV 141630Z 1418/1518 11015G25KT 9999 SCT018 BKN040 PROB30 TEMPO 1513/1517 9000 SHRA
Issued Valid From Valid To
Dec-14 @ 16:30 UTC
(6 hours ago)
Dec-14 @ 18:00 UTC
(5 hours ago)
Dec-15 @ 18:00 UTC
(in 19 hours)
Dec-14 @ 18:00 to Dec-15 @ 18:00
MBPV 141630Z 1418/1518 11015G25KT 9999 SCT018 BKN040
Wind Visibility Clouds
110° at 15 knots
 Gusting to 25 knots
10,000+ meters
  • Scattered at 1,800' AGL
  • Broken at 4,000' AGL
Temporary  (Probability 30%) Dec-15 @ 13:00 to Dec-15 @ 17:00
PROB30 TEMPO 1513/1517 9000 SHRA
Visibility Conditions
8,996 meters
  • Rain
MBPV 141630Z 1418/1518 11015G25KT 9999 SCT018 BKN040 PROB30 TEMPO 1513/1517 9000 SHRA
Issued Dec-14 @ 16:30 UTC
(6 hours ago)
Valid From Dec-14 @ 18:00 UTC
(5 hours ago)
Valid To Dec-15 @ 18:00 UTC
(in 19 hours)
Dec-14 @ 18:00 - Dec-15 @ 18:00
Wind Visibility
110° at 15 knots
 Gusting to 25 knots
10,000+ meters
Clouds
  • Scattered at 1,800' AGL
  • Broken at 4,000' AGL
Probability 30% Temporary Dec-15 @ 13:00 - Dec-15 @ 17:00
Conditions
  • Rain